Time;durP1;ratioP1;P1;durP2;ratioP2;P2;SDS_P1;SDS_P2;PMS_P1;PMS_P2;Temp;Humidity;BMP_temperature;BMP_pressure;BME280_temperature;BME280_humidity;BME280_pressure;Samples;Min_cycle;Max_cycle;Signal;HPM_P1;HPM_P2
2022/05/23 00:02:46;;;;;;;3.10;1.58;;;;;;;;;;6120623;22;20021;-95
2022/05/23 00:05:19;;;;;;;8.38;1.85;;;;;;;;;;6176282;23;20441;-96
2022/05/23 00:07:50;;;;;;;4.30;1.50;;;;;;;;;;6168487;23;20005;-91
2022/05/23 00:10:44;;;;;;;5.80;1.50;;;;;;;;;;6176320;23;19993;-95
2022/05/23 00:16:08;;;;;;;5.32;1.38;;;;;;;;;;6201501;23;20028;-92
2022/05/23 00:19:09;;;;;;;5.85;1.60;;;;;;;;;;6174407;23;20025;-94
2022/05/23 00:22:14;;;;;;;2.70;1.52;;;;;;;;;;6200013;23;20005;-94
2022/05/23 00:24:49;;;;;;;3.33;1.50;;;;;;;;;;6169307;23;20005;-90
2022/05/23 00:30:24;;;;;;;3.80;1.45;;;;;;;;;;6198917;23;20015;-95
2022/05/23 00:36:09;;;;;;;5.45;1.88;;;;;;;;;;6192966;23;20104;-95
2022/05/23 00:45:16;;;;;;;4.93;1.60;;;;;;;;;;6187495;23;20016;-95
2022/05/23 01:19:22;;;;;;;2.92;1.67;;;;;;;;;;6186646;23;20438;-95
2022/05/23 01:42:42;;;;;;;3.38;1.40;;;;;;;;;;6185249;23;20035;-93
2022/05/23 01:48:12;;;;;;;3.13;1.50;;;;;;;;;;6190147;23;20437;-91
2022/05/23 01:50:47;;;;;;;2.88;1.40;;;;;;;;;;6160696;23;20043;-91
2022/05/23 02:01:59;;;;;;;5.82;1.55;;;;;;;;;;6157404;23;20064;-94
2022/05/23 02:04:32;;;;;;;3.00;1.33;;;;;;;;;;6135704;23;20032;-92
2022/05/23 02:07:04;;;;;;;4.78;1.50;;;;;;;;;;6148769;23;20410;-94
2022/05/23 02:09:33;;;;;;;3.90;1.50;;;;;;;;;;6132903;23;20013;-90
2022/05/23 02:12:12;;;;;;;7.95;1.55;;;;;;;;;;6130976;23;20010;-96
2022/05/23 02:14:42;;;;;;;4.50;1.60;;;;;;;;;;6130707;23;20427;-94
2022/05/23 02:17:17;;;;;;;4.55;1.60;;;;;;;;;;6131147;23;20435;-93
2022/05/23 02:26:04;;;;;;;5.00;1.85;;;;;;;;;;6185020;23;20461;-96
2022/05/23 02:28:31;;;;;;;4.47;1.58;;;;;;;;;;6232354;22;20016;-95
2022/05/23 02:31:03;;;;;;;4.03;1.35;;;;;;;;;;6251102;22;20012;-91
2022/05/23 02:33:32;;;;;;;3.80;1.33;;;;;;;;;;6150200;23;20029;-94
2022/05/23 02:42:25;;;;;;;3.20;1.20;;;;;;;;;;6164206;23;20279;-92
2022/05/23 02:45:02;;;;;;;3.40;1.20;;;;;;;;;;6139199;23;20427;-96
2022/05/23 02:47:35;;;;;;;2.58;1.30;;;;;;;;;;6163559;23;20036;-95
2022/05/23 02:56:09;;;;;;;4.40;1.20;;;;;;;;;;6189047;23;20012;-94
2022/05/23 02:58:38;;;;;;;3.15;1.23;;;;;;;;;;6146261;23;20299;-93
2022/05/23 03:47:15;;;;;;;2.45;1.10;;;;;;;;;;6187766;23;20471;-88
2022/05/23 03:49:44;;;;;;;2.70;1.10;;;;;;;;;;6161713;23;20080;-91
2022/05/23 03:52:10;;;;;;;2.75;1.00;;;;;;;;;;6161368;23;20028;-89
2022/05/23 03:54:39;;;;;;;3.88;1.30;;;;;;;;;;6161907;23;20020;-90
2022/05/23 03:57:25;;;;;;;1.95;1.20;;;;;;;;;;6162462;23;20422;-90
2022/05/23 03:59:59;;;;;;;2.83;1.10;;;;;;;;;;6164253;23;20461;-90
2022/05/23 04:02:35;;;;;;;3.88;1.35;;;;;;;;;;6161526;23;20330;-90
2022/05/23 04:05:22;;;;;;;5.28;1.38;;;;;;;;;;6161824;23;20060;-89
2022/05/23 04:07:51;;;;;;;2.15;1.10;;;;;;;;;;6161708;23;20005;-91
2022/05/23 04:10:30;;;;;;;3.58;1.13;;;;;;;;;;6161489;23;20013;-89
2022/05/23 04:13:02;;;;;;;6.80;1.52;;;;;;;;;;6161754;23;20024;-89
2022/05/23 04:28:03;;;;;;;2.72;1.30;;;;;;;;;;6097010;23;20013;-90
2022/05/23 04:45:05;;;;;;;3.95;1.48;;;;;;;;;;6166516;23;20103;-92
2022/05/23 04:53:40;;;;;;;6.57;2.40;;;;;;;;;;6163782;23;20032;-95
2022/05/23 04:56:21;;;;;;;7.55;3.72;;;;;;;;;;6161391;23;20423;-89
2022/05/23 04:59:08;;;;;;;6.57;3.53;;;;;;;;;;6161100;23;20012;-91
2022/05/23 05:01:43;;;;;;;4.43;1.55;;;;;;;;;;6163878;23;20009;-90
2022/05/23 05:04:31;;;;;;;3.78;1.52;;;;;;;;;;6164121;23;20033;-91
2022/05/23 05:06:57;;;;;;;2.45;0.95;;;;;;;;;;6162381;23;20140;-92
2022/05/23 05:12:30;;;;;;;4.83;0.90;;;;;;;;;;6127689;23;20062;-91
2022/05/23 05:14:59;;;;;;;4.97;1.00;;;;;;;;;;6102018;23;20253;-90
2022/05/23 05:20:28;;;;;;;4.55;1.83;;;;;;;;;;6127633;23;20397;-91
2022/05/23 05:22:57;;;;;;;6.65;1.98;;;;;;;;;;6101517;23;20053;-90
2022/05/23 05:25:31;;;;;;;4.80;1.88;;;;;;;;;;6102279;23;20005;-96
2022/05/23 05:28:00;;;;;;;7.32;2.40;;;;;;;;;;6103055;23;20010;-93
2022/05/23 05:30:33;;;;;;;4.63;1.90;;;;;;;;;;6101771;23;20089;-95
2022/05/23 05:33:01;;;;;;;2.65;1.08;;;;;;;;;;6100547;23;20021;-84
2022/05/23 05:35:34;;;;;;;4.65;1.25;;;;;;;;;;6100292;23;20044;-86
2022/05/23 05:38:17;;;;;;;3.22;1.20;;;;;;;;;;6100631;23;20439;-87
2022/05/23 05:40:47;;;;;;;3.85;1.15;;;;;;;;;;6140122;23;20012;-88
2022/05/23 05:43:21;;;;;;;3.92;1.20;;;;;;;;;;6186191;23;20076;-84
2022/05/23 05:45:50;;;;;;;5.18;1.00;;;;;;;;;;6186230;23;20001;-82
2022/05/23 05:48:16;;;;;;;2.55;0.90;;;;;;;;;;6161097;23;20067;-91
2022/05/23 05:50:43;;;;;;;3.17;1.00;;;;;;;;;;6170344;23;19988;-90
2022/05/23 05:53:31;;;;;;;3.05;1.10;;;;;;;;;;6173960;23;20013;-95
2022/05/23 05:55:57;;;;;;;2.58;0.90;;;;;;;;;;6162112;23;20005;-91
2022/05/23 05:58:33;;;;;;;3.95;1.15;;;;;;;;;;6151215;23;20029;-91
2022/05/23 06:04:14;;;;;;;3.10;0.90;;;;;;;;;;6157509;23;20068;-94
2022/05/23 06:12:31;;;;;;;2.63;1.08;;;;;;;;;;6156862;23;20068;-91
2022/05/23 06:18:12;;;;;;;5.57;1.63;;;;;;;;;;6157228;23;20093;-91
2022/05/23 06:20:42;;;;;;;4.53;1.35;;;;;;;;;;6131262;23;20032;-90
2022/05/23 06:23:14;;;;;;;4.55;1.23;;;;;;;;;;6131352;23;20009;-94
2022/05/23 06:25:43;;;;;;;2.90;1.10;;;;;;;;;;6131267;23;20009;-93
2022/05/23 06:28:12;;;;;;;3.13;1.00;;;;;;;;;;6131054;23;20005;-90
2022/05/23 06:30:38;;;;;;;6.63;1.30;;;;;;;;;;6130751;23;20016;-88
2022/05/23 06:33:05;;;;;;;2.42;1.10;;;;;;;;;;6156424;23;20021;-87
2022/05/23 06:35:31;;;;;;;4.30;1.02;;;;;;;;;;6130498;23;20006;-82
2022/05/23 06:37:57;;;;;;;3.17;1.02;;;;;;;;;;6130081;23;20005;-81
2022/05/23 06:40:29;;;;;;;3.15;1.17;;;;;;;;;;6155134;23;20006;-91
2022/05/23 06:42:55;;;;;;;2.03;1.00;;;;;;;;;;6154901;23;20422;-79
2022/05/23 06:45:21;;;;;;;5.03;1.20;;;;;;;;;;6154728;23;20028;-82
2022/05/23 06:47:48;;;;;;;3.08;1.30;;;;;;;;;;6154834;23;20450;-89
2022/05/23 06:50:15;;;;;;;4.30;1.17;;;;;;;;;;6154963;23;20065;-81
2022/05/23 06:52:41;;;;;;;5.05;1.25;;;;;;;;;;6155924;23;20031;-88
2022/05/23 06:55:07;;;;;;;4.07;1.10;;;;;;;;;;6130148;23;20013;-88
2022/05/23 06:57:34;;;;;;;1.90;0.80;;;;;;;;;;6156495;23;20121;-84
2022/05/23 07:00:00;;;;;;;3.15;1.15;;;;;;;;;;6154459;23;20006;-87
2022/05/23 07:02:26;;;;;;;2.75;0.80;;;;;;;;;;6154526;23;20001;-81
2022/05/23 07:13:14;;;;;;;3.47;1.08;;;;;;;;;;6186246;23;20068;-80
2022/05/23 07:15:46;;;;;;;2.10;0.90;;;;;;;;;;6186218;23;20068;-90
2022/05/23 07:18:13;;;;;;;2.85;1.10;;;;;;;;;;6160107;23;20001;-86
2022/05/23 07:20:40;;;;;;;4.25;0.90;;;;;;;;;;6159886;23;20017;-82
2022/05/23 07:23:06;;;;;;;2.25;1.05;;;;;;;;;;6159792;23;20400;-87
2022/05/23 07:25:32;;;;;;;2.47;0.88;;;;;;;;;;6159649;23;20005;-86
2022/05/23 07:27:58;;;;;;;2.35;0.90;;;;;;;;;;6161726;23;20009;-85
2022/05/23 07:30:25;;;;;;;3.45;1.00;;;;;;;;;;6161819;23;20009;-85
2022/05/23 07:32:51;;;;;;;2.53;0.95;;;;;;;;;;6161796;23;20334;-85
2022/05/23 07:35:17;;;;;;;2.45;0.98;;;;;;;;;;6188187;23;20001;-86
2022/05/23 07:37:53;;;;;;;2.40;0.80;;;;;;;;;;6161633;23;20005;-91
2022/05/23 07:40:20;;;;;;;3.03;1.02;;;;;;;;;;6162416;23;20092;-86
2022/05/23 07:42:47;;;;;;;3.95;0.90;;;;;;;;;;6206578;23;20009;-89
2022/05/23 07:45:14;;;;;;;2.70;0.90;;;;;;;;;;6162494;23;20009;-85
2022/05/23 07:47:41;;;;;;;4.05;0.90;;;;;;;;;;6187887;23;20036;-89
2022/05/23 07:50:14;;;;;;;8.57;1.05;;;;;;;;;;6161722;23;20013;-90
2022/05/23 08:00:30;;;;;;;2.40;0.80;;;;;;;;;;6161832;23;20004;-89
2022/05/23 08:00:58;;;;;;;2.70;1.20;;;;;;;;;;6187508;23;20067;-83
2022/05/23 08:03:25;;;;;;;3.42;1.10;;;;;;;;;;6161100;23;20009;-87
2022/05/23 08:05:52;;;;;;;2.42;1.00;;;;;;;;;;6161418;23;20096;-86
2022/05/23 08:08:18;;;;;;;3.25;0.88;;;;;;;;;;6161204;23;20009;-86
2022/05/23 08:10:44;;;;;;;4.13;0.95;;;;;;;;;;6161027;23;20063;-87
2022/05/23 08:13:10;;;;;;;2.13;1.05;;;;;;;;;;6160377;23;20016;-85
2022/05/23 08:15:37;;;;;;;3.50;0.90;;;;;;;;;;6160853;23;20004;-84
2022/05/23 08:18:04;;;;;;;2.53;1.00;;;;;;;;;;6161405;23;20060;-89
2022/05/23 08:20:31;;;;;;;3.38;0.90;;;;;;;;;;6161588;23;20016;-88
2022/05/23 08:22:57;;;;;;;4.00;1.00;;;;;;;;;;6187403;23;20029;-87
2022/05/23 08:25:24;;;;;;;2.72;0.80;;;;;;;;;;6161532;23;20013;-89
2022/05/23 08:27:50;;;;;;;3.33;0.88;;;;;;;;;;6161290;23;20001;-87
2022/05/23 08:30:16;;;;;;;2.08;0.63;;;;;;;;;;6161323;23;20088;-88
2022/05/23 08:32:43;;;;;;;3.58;0.75;;;;;;;;;;6161154;23;20001;-87
2022/05/23 08:35:09;;;;;;;2.58;0.68;;;;;;;;;;6161302;23;20013;-90
2022/05/23 08:37:39;;;;;;;4.82;0.70;;;;;;;;;;6160340;23;20081;-91
2022/05/23 08:40:07;;;;;;;2.60;0.70;;;;;;;;;;6160758;23;20012;-88
2022/05/23 08:42:49;;;;;;;3.22;0.60;;;;;;;;;;6161223;23;20430;-91
2022/05/23 08:45:15;;;;;;;;;;;;;;;;;;6161978;23;20005;-92
2022/05/23 08:47:55;;;;;;;1.13;0.55;;;;;;;;;;6161569;23;19923;-91
2022/05/23 08:50:27;;;;;;;3.13;0.60;;;;;;;;;;6161368;23;20005;-89
2022/05/23 08:53:15;;;;;;;2.40;0.70;;;;;;;;;;6161505;23;20012;-93
2022/05/23 08:55:47;;;;;;;2.75;0.73;;;;;;;;;;6187296;23;20004;-91
2022/05/23 08:58:43;;;;;;;4.93;1.00;;;;;;;;;;6156077;23;20025;-93
2022/05/23 09:01:15;;;;;;;3.45;0.68;;;;;;;;;;6130272;23;20398;-87
2022/05/23 09:03:45;;;;;;;2.45;0.63;;;;;;;;;;6156012;23;20002;-87
2022/05/23 09:06:26;;;;;;;2.92;0.70;;;;;;;;;;6157661;23;20072;-85
2022/05/23 09:08:54;;;;;;;2.15;0.63;;;;;;;;;;6154466;23;20008;-87
2022/05/23 09:11:49;;;;;;;2.42;0.50;;;;;;;;;;6156714;23;20017;-93
2022/05/23 09:14:17;;;;;;;1.42;0.55;;;;;;;;;;6135255;23;20088;-89
2022/05/23 09:16:53;;;;;;;2.30;0.60;;;;;;;;;;6157598;23;20339;-93
2022/05/23 09:19:32;;;;;;;1.67;0.50;;;;;;;;;;6156527;23;20006;-93
2022/05/23 09:22:18;;;;;;;0.95;0.50;;;;;;;;;;6156737;23;20064;-91
2022/05/23 09:24:55;;;;;;;2.88;0.80;;;;;;;;;;6156501;23;20148;-92
2022/05/23 09:28:01;;;;;;;4.53;1.02;;;;;;;;;;6158266;23;20009;-94
2022/05/23 09:30:31;;;;;;;1.75;0.60;;;;;;;;;;6161880;23;20005;-89
2022/05/23 09:33:00;;;;;;;1.33;0.50;;;;;;;;;;6175040;23;20025;-89
2022/05/23 09:38:41;;;;;;;3.47;0.85;;;;;;;;;;6157780;23;20028;-92
2022/05/23 09:41:07;;;;;;;3.67;0.80;;;;;;;;;;6157228;23;20013;-90
2022/05/23 09:49:34;;;;;;;2.05;0.60;;;;;;;;;;6039134;23;20059;-94
2022/05/23 09:52:04;;;;;;;3.47;0.65;;;;;;;;;;6015131;23;20019;-92
2022/05/23 09:54:33;;;;;;;2.53;0.77;;;;;;;;;;6026699;23;20043;-95
2022/05/23 09:57:02;;;;;;;2.72;0.70;;;;;;;;;;6156028;23;20005;-89
2022/05/23 09:59:33;;;;;;;1.38;0.43;;;;;;;;;;6155296;23;20438;-91
2022/05/23 10:02:18;;;;;;;2.72;0.88;;;;;;;;;;6155944;23;20013;-91
2022/05/23 10:04:45;;;;;;;2.28;0.70;;;;;;;;;;6155864;23;20005;-89
2022/05/23 10:07:25;;;;;;;4.65;0.70;;;;;;;;;;6155893;23;20088;-91
2022/05/23 10:09:56;;;;;;;2.38;0.70;;;;;;;;;;6155884;23;20006;-89
2022/05/23 10:12:24;;;;;;;2.83;0.70;;;;;;;;;;6155843;23;20493;-89
2022/05/23 10:15:01;;;;;;;3.17;0.80;;;;;;;;;;6155945;23;20013;-93
2022/05/23 10:17:29;;;;;;;2.72;0.55;;;;;;;;;;6155681;23;20002;-93
2022/05/23 10:20:15;;;;;;;2.67;0.70;;;;;;;;;;6155604;23;20085;-90
2022/05/23 10:22:53;;;;;;;3.25;0.80;;;;;;;;;;6155877;23;20320;-93
2022/05/23 10:25:20;;;;;;;1.63;0.60;;;;;;;;;;6156670;23;20010;-88
2022/05/23 10:27:46;;;;;;;3.05;0.80;;;;;;;;;;6156687;23;20008;-88
2022/05/23 10:30:30;;;;;;;5.00;0.90;;;;;;;;;;6156982;23;20033;-95
2022/05/23 10:33:13;;;;;;;4.43;0.63;;;;;;;;;;6156463;23;20089;-89
2022/05/23 10:35:47;;;;;;;14.13;0.60;;;;;;;;;;6156091;23;20076;-92
2022/05/23 10:44:07;;;;;;;2.25;0.68;;;;;;;;;;6156636;23;20021;-88
2022/05/23 10:46:36;;;;;;;3.13;0.70;;;;;;;;;;6155914;23;20002;-82
2022/05/23 10:49:05;;;;;;;6.35;0.88;;;;;;;;;;6155475;23;20615;-81
2022/05/23 10:51:47;;;;;;;3.85;0.80;;;;;;;;;;6154714;23;20005;-85
2022/05/23 10:54:16;;;;;;;3.37;0.70;;;;;;;;;;6156995;23;20067;-81
2022/05/23 10:56:51;;;;;;;3.60;0.77;;;;;;;;;;6156821;23;20001;-80
2022/05/23 10:59:32;;;;;;;2.75;0.90;;;;;;;;;;6157129;23;20142;-85
2022/05/23 11:02:01;;;;;;;4.22;0.73;;;;;;;;;;6155935;23;20584;-90
2022/05/23 11:04:52;;;;;;;2.50;0.70;;;;;;;;;;6158598;23;20001;-88
2022/05/23 11:07:21;;;;;;;2.65;0.73;;;;;;;;;;6157547;23;20330;-86
2022/05/23 11:10:04;;;;;;;3.08;0.80;;;;;;;;;;6156615;23;20006;-92
2022/05/23 11:12:56;;;;;;;1.83;0.60;;;;;;;;;;6157624;23;20001;-93
2022/05/23 11:15:35;;;;;;;1.98;0.63;;;;;;;;;;6157770;23;20017;-90
2022/05/23 11:18:05;;;;;;;2.42;0.50;;;;;;;;;;6160842;23;20013;-87
2022/05/23 11:20:43;;;;;;;3.83;0.80;;;;;;;;;;6158627;23;20052;-94
2022/05/23 11:23:24;;;;;;;2.00;0.80;;;;;;;;;;6157949;23;20077;-90
2022/05/23 11:25:57;;;;;;;2.47;0.70;;;;;;;;;;6158548;23;20073;-87
2022/05/23 11:34:07;;;;;;;2.08;0.80;;;;;;;;;;6159725;23;20024;-88
2022/05/23 11:39:37;;;;;;;2.67;0.75;;;;;;;;;;6157869;23;20108;-86
2022/05/23 11:42:17;;;;;;;3.28;0.63;;;;;;;;;;6157487;23;20032;-85
2022/05/23 11:44:49;;;;;;;1.80;0.88;;;;;;;;;;6158656;23;20029;-92
2022/05/23 11:47:21;;;;;;;1.95;0.65;;;;;;;;;;6158279;23;20086;-92
2022/05/23 11:50:02;;;;;;;3.15;0.75;;;;;;;;;;6157463;23;20002;-88
2022/05/23 11:52:36;;;;;;;6.25;3.55;;;;;;;;;;6158097;23;20009;-89
2022/05/23 11:55:02;;;;;;;5.13;1.05;;;;;;;;;;6158209;23;20067;-92
2022/05/23 11:57:29;;;;;;;2.67;0.82;;;;;;;;;;6159207;23;20009;-90
2022/05/23 11:59:56;;;;;;;4.72;1.23;;;;;;;;;;6162505;23;20017;-94
2022/05/23 12:02:24;;;;;;;4.68;1.00;;;;;;;;;;6162447;23;20032;-93
2022/05/23 12:04:51;;;;;;;2.63;1.10;;;;;;;;;;6188071;23;20024;-92
2022/05/23 12:10:24;;;;;;;4.97;1.23;;;;;;;;;;6188379;23;20019;-79
2022/05/23 12:12:58;;;;;;;4.78;1.30;;;;;;;;;;6161503;23;20054;-89
2022/05/23 12:15:43;;;;;;;2.63;1.00;;;;;;;;;;6188526;23;20005;-92
2022/05/23 12:18:27;;;;;;;4.60;1.20;;;;;;;;;;6162449;23;20016;-85
2022/05/23 12:20:57;;;;;;;2.80;1.10;;;;;;;;;;6187883;23;20076;-91
2022/05/23 12:23:42;;;;;;;2.97;1.00;;;;;;;;;;6161572;23;20005;-89
2022/05/23 12:26:15;;;;;;;3.97;1.10;;;;;;;;;;6153652;23;20017;-90
2022/05/23 12:29:04;;;;;;;3.25;0.93;;;;;;;;;;6163237;23;20053;-92
2022/05/23 12:31:53;;;;;;;3.55;1.33;;;;;;;;;;6163435;23;20011;-92
2022/05/23 12:34:23;;;;;;;2.90;1.27;;;;;;;;;;6185926;23;20405;-90
2022/05/23 12:36:52;;;;;;;2.67;1.00;;;;;;;;;;6187985;23;20005;-91
2022/05/23 12:39:37;;;;;;;3.70;1.23;;;;;;;;;;6161480;23;20018;-91
2022/05/23 12:42:25;;;;;;;5.03;1.50;;;;;;;;;;6161843;23;20036;-91
2022/05/23 12:45:04;;;;;;;3.05;1.25;;;;;;;;;;6162086;23;20005;-87
2022/05/23 12:47:38;;;;;;;2.85;1.13;;;;;;;;;;6166316;23;20044;-88
2022/05/23 12:50:32;;;;;;;5.47;1.20;;;;;;;;;;6171158;23;20008;-91
2022/05/23 12:53:20;;;;;;;4.10;1.17;;;;;;;;;;6043274;23;20003;-89
2022/05/23 12:55:57;;;;;;;5.30;1.00;;;;;;;;;;6161267;23;20088;-87
2022/05/23 12:58:42;;;;;;;4.00;0.90;;;;;;;;;;6160629;23;20148;-89
2022/05/23 13:01:17;;;;;;;4.32;1.10;;;;;;;;;;6161411;23;20005;-88
2022/05/23 13:03:52;;;;;;;4.32;0.90;;;;;;;;;;6160832;23;20007;-91
2022/05/23 13:06:40;;;;;;;4.03;1.25;;;;;;;;;;6161163;23;20044;-91
2022/05/23 13:09:15;;;;;;;2.25;0.95;;;;;;;;;;6160765;23;20001;-86
2022/05/23 13:11:48;;;;;;;3.38;1.02;;;;;;;;;;6161020;23;20020;-86
2022/05/23 13:14:15;;;;;;;4.45;1.10;;;;;;;;;;6161493;23;20013;-87
2022/05/23 13:16:50;;;;;;;3.83;1.13;;;;;;;;;;6160829;23;20005;-84
2022/05/23 13:22:22;;;;;;;6.15;1.10;;;;;;;;;;6186964;23;20093;-80
2022/05/23 13:24:50;;;;;;;3.65;0.88;;;;;;;;;;6160358;23;20005;-86
2022/05/23 13:27:25;;;;;;;3.45;1.02;;;;;;;;;;6160607;23;20064;-89
2022/05/23 13:30:20;;;;;;;2.80;0.90;;;;;;;;;;6161072;23;20011;-89
2022/05/23 13:33:04;;;;;;;2.60;0.90;;;;;;;;;;6136601;23;20036;-81
2022/05/23 13:35:31;;;;;;;3.45;0.98;;;;;;;;;;6188000;23;20005;-88
2022/05/23 13:38:11;;;;;;;4.93;1.20;;;;;;;;;;6161521;23;20072;-89
2022/05/23 13:40:42;;;;;;;3.60;1.10;;;;;;;;;;6160957;23;20481;-90
2022/05/23 13:43:17;;;;;;;4.22;0.98;;;;;;;;;;6161328;23;20389;-90
2022/05/23 13:45:46;;;;;;;3.58;1.00;;;;;;;;;;6161516;23;20001;-92
2022/05/23 13:48:20;;;;;;;2.22;0.90;;;;;;;;;;6161330;23;20016;-88
2022/05/23 13:50:50;;;;;;;3.88;1.30;;;;;;;;;;6162078;23;20001;-90
2022/05/23 13:53:28;;;;;;;3.92;1.30;;;;;;;;;;6161188;23;20314;-91
2022/05/23 13:55:55;;;;;;;3.75;1.27;;;;;;;;;;6161451;23;20037;-92
2022/05/23 13:58:27;;;;;;;3.65;1.10;;;;;;;;;;6155880;23;20022;-87
2022/05/23 14:00:55;;;;;;;2.53;0.95;;;;;;;;;;6157486;23;20006;-88
2022/05/23 14:03:33;;;;;;;3.17;1.10;;;;;;;;;;6156336;23;20006;-90
2022/05/23 14:06:02;;;;;;;2.05;0.95;;;;;;;;;;6155995;23;20032;-90
2022/05/23 14:08:38;;;;;;;2.38;1.00;;;;;;;;;;6157320;23;20021;-90
2022/05/23 14:11:07;;;;;;;3.05;1.10;;;;;;;;;;6156213;23;20010;-89
2022/05/23 14:13:34;;;;;;;5.55;1.00;;;;;;;;;;6156558;23;20029;-90
2022/05/23 14:16:03;;;;;;;3.63;1.20;;;;;;;;;;6154870;23;20056;-79
2022/05/23 14:18:30;;;;;;;3.95;1.20;;;;;;;;;;6154828;23;20013;-81
2022/05/23 14:20:57;;;;;;;2.42;0.90;;;;;;;;;;6154689;23;20012;-79
2022/05/23 14:23:25;;;;;;;4.60;1.00;;;;;;;;;;6154802;23;20002;-80
2022/05/23 14:25:54;;;;;;;3.10;1.05;;;;;;;;;;6154933;23;20092;-80
2022/05/23 14:28:22;;;;;;;4.10;0.90;;;;;;;;;;6156403;23;20060;-79
2022/05/23 14:30:50;;;;;;;2.50;1.00;;;;;;;;;;6154709;23;20016;-79
2022/05/23 14:33:26;;;;;;;4.88;1.00;;;;;;;;;;6154840;23;20319;-81
2022/05/23 14:35:52;;;;;;;3.55;1.20;;;;;;;;;;6155212;23;20339;-81
2022/05/23 14:38:37;;;;;;;7.90;1.20;;;;;;;;;;6156186;23;20009;-80
2022/05/23 14:41:29;;;;;;;2.60;0.90;;;;;;;;;;6156464;23;20009;-79
2022/05/23 14:44:14;;;;;;;2.67;1.10;;;;;;;;;;6153967;23;20009;-79
2022/05/23 14:47:01;;;;;;;3.67;1.27;;;;;;;;;;6156135;23;20423;-79
2022/05/23 14:49:29;;;;;;;3.33;1.02;;;;;;;;;;6156364;23;20052;-82
2022/05/23 14:51:55;;;;;;;4.68;1.15;;;;;;;;;;6156754;23;20086;-83
2022/05/23 15:00:37;;;;;;;2.85;1.00;;;;;;;;;;6158457;23;20012;-86
2022/05/23 15:00:38;;;;;;;3.47;1.10;;;;;;;;;;6186768;23;20037;-83
2022/05/23 15:03:25;;;;;;;3.25;1.17;;;;;;;;;;6161426;23;20005;-84
2022/05/23 15:05:53;;;;;;;3.35;1.40;;;;;;;;;;6161363;23;20374;-86
2022/05/23 15:08:20;;;;;;;3.70;1.20;;;;;;;;;;6187856;23;20005;-82
2022/05/23 15:10:46;;;;;;;5.90;1.17;;;;;;;;;;6161861;23;20032;-85
2022/05/23 15:13:13;;;;;;;4.47;1.10;;;;;;;;;;6161017;23;20009;-87
2022/05/23 15:15:40;;;;;;;3.95;1.20;;;;;;;;;;6163427;23;20013;-85
2022/05/23 15:18:07;;;;;;;6.07;1.50;;;;;;;;;;6161793;23;20012;-85
2022/05/23 15:20:33;;;;;;;5.22;1.70;;;;;;;;;;6159142;23;20452;-86
2022/05/23 15:22:59;;;;;;;4.13;2.10;;;;;;;;;;6187717;23;20001;-85
2022/05/23 15:25:25;;;;;;;5.68;1.42;;;;;;;;;;6161411;23;20334;-89
2022/05/23 15:27:52;;;;;;;4.97;1.45;;;;;;;;;;6162140;23;20025;-89
2022/05/23 15:30:20;;;;;;;3.05;1.10;;;;;;;;;;6162039;23;20009;-91
2022/05/23 15:32:47;;;;;;;3.60;1.30;;;;;;;;;;6161883;23;20001;-86
2022/05/23 15:35:21;;;;;;;3.53;1.27;;;;;;;;;;6162844;23;20020;-87
2022/05/23 15:37:48;;;;;;;5.22;1.40;;;;;;;;;;6161822;23;20005;-84
2022/05/23 15:40:15;;;;;;;4.18;1.30;;;;;;;;;;6188074;23;20080;-87
2022/05/23 15:42:42;;;;;;;10.88;1.83;;;;;;;;;;6161546;23;20032;-89
2022/05/23 15:45:11;;;;;;;3.70;1.10;;;;;;;;;;6161455;23;20084;-85
2022/05/23 15:47:44;;;;;;;5.10;1.40;;;;;;;;;;6155141;23;20044;-85
2022/05/23 15:50:17;;;;;;;5.72;1.55;;;;;;;;;;6162235;23;20012;-87
2022/05/23 15:52:46;;;;;;;;;;;;;;;;;;6162143;23;20009;-89
2022/05/23 15:55:18;;;;;;;5.85;1.50;;;;;;;;;;6161260;23;19908;-93
2022/05/23 15:57:52;;;;;;;4.07;1.33;;;;;;;;;;6161967;23;20007;-85
2022/05/23 16:00:26;;;;;;;4.13;1.65;;;;;;;;;;6161723;23;20430;-88
2022/05/23 16:02:53;;;;;;;3.15;1.23;;;;;;;;;;6185928;23;20080;-85
2022/05/23 16:05:20;;;;;;;4.93;1.40;;;;;;;;;;6161558;23;20009;-87
2022/05/23 16:07:47;;;;;;;9.73;1.45;;;;;;;;;;6186708;23;20063;-88
2022/05/23 16:10:14;;;;;;;2.80;1.30;;;;;;;;;;6161497;23;20005;-94
2022/05/23 16:12:42;;;;;;;3.40;1.70;;;;;;;;;;6162206;23;20021;-88
2022/05/23 16:15:15;;;;;;;5.43;1.60;;;;;;;;;;6161055;23;20020;-92
2022/05/23 16:17:54;;;;;;;3.47;1.48;;;;;;;;;;6161269;23;20008;-91
2022/05/23 16:20:24;;;;;;;8.38;2.78;;;;;;;;;;6158849;23;20028;-88
2022/05/23 16:23:05;;;;;;;5.00;1.67;;;;;;;;;;6159831;23;20016;-84
2022/05/23 16:25:31;;;;;;;3.90;1.70;;;;;;;;;;6172888;23;20076;-89
2022/05/23 16:27:57;;;;;;;3.28;1.40;;;;;;;;;;6162813;23;20001;-86
2022/05/23 16:30:23;;;;;;;3.50;1.48;;;;;;;;;;6187063;23;20029;-85
2022/05/23 16:38:19;;;;;;;3.13;1.30;;;;;;;;;;6187381;23;20092;-86
2022/05/23 16:40:45;;;;;;;3.42;1.40;;;;;;;;;;6160943;23;20518;-84
2022/05/23 16:43:11;;;;;;;3.50;1.50;;;;;;;;;;6186957;23;20005;-94
2022/05/23 16:45:38;;;;;;;2.88;1.42;;;;;;;;;;6187675;23;20004;-86
2022/05/23 16:48:06;;;;;;;5.20;1.38;;;;;;;;;;6161150;23;20044;-89
2022/05/23 16:50:33;;;;;;;4.38;1.30;;;;;;;;;;6161074;23;20001;-87
2022/05/23 16:52:59;;;;;;;3.17;1.20;;;;;;;;;;6161448;23;20013;-86
2022/05/23 16:55:25;;;;;;;4.22;1.55;;;;;;;;;;6161055;23;20015;-86
2022/05/23 16:57:52;;;;;;;2.63;1.60;;;;;;;;;;6187574;23;20326;-87
2022/05/23 17:00:18;;;;;;;3.65;1.50;;;;;;;;;;6160530;23;20005;-92
2022/05/23 17:02:45;;;;;;;4.05;1.48;;;;;;;;;;6177510;23;20008;-84
2022/05/23 17:05:11;;;;;;;3.60;1.30;;;;;;;;;;6187204;23;20001;-90
2022/05/23 17:07:37;;;;;;;4.38;1.50;;;;;;;;;;6160912;23;20036;-88
2022/05/23 17:10:03;;;;;;;3.65;1.35;;;;;;;;;;6160778;23;20100;-89
2022/05/23 17:12:30;;;;;;;3.25;1.40;;;;;;;;;;6171144;23;20020;-84
2022/05/23 17:14:56;;;;;;;4.07;1.30;;;;;;;;;;6190877;23;20027;-85
2022/05/23 17:17:22;;;;;;;3.50;1.60;;;;;;;;;;6190409;23;20005;-87
2022/05/23 17:19:50;;;;;;;4.40;1.40;;;;;;;;;;6190165;23;20024;-91
2022/05/23 17:22:16;;;;;;;3.60;1.48;;;;;;;;;;6190954;23;20009;-88
2022/05/23 17:24:43;;;;;;;4.65;1.38;;;;;;;;;;6217017;23;20333;-89
2022/05/23 17:27:09;;;;;;;3.30;1.30;;;;;;;;;;6190786;23;20071;-86
2022/05/23 17:29:35;;;;;;;4.22;1.25;;;;;;;;;;6190659;23;20088;-90
2022/05/23 17:32:01;;;;;;;5.45;1.77;;;;;;;;;;6190268;23;20000;-90
2022/05/23 17:34:28;;;;;;;4.00;1.65;;;;;;;;;;6190311;23;20100;-86
2022/05/23 17:36:55;;;;;;;3.08;1.35;;;;;;;;;;6216878;23;20001;-87
2022/05/23 17:39:21;;;;;;;9.55;1.77;;;;;;;;;;6191237;23;20008;-89
2022/05/23 17:41:47;;;;;;;5.53;1.50;;;;;;;;;;6190590;23;20023;-91
2022/05/23 17:44:14;;;;;;;6.43;1.67;;;;;;;;;;6190748;23;20008;-91
2022/05/23 17:46:40;;;;;;;6.13;2.13;;;;;;;;;;6192471;23;20085;-88
2022/05/23 17:49:06;;;;;;;41.28;15.30;;;;;;;;;;6191056;23;20015;-88
2022/05/23 17:51:32;;;;;;;12.68;4.30;;;;;;;;;;6192649;23;20390;-90
2022/05/23 17:53:58;;;;;;;16.98;7.88;;;;;;;;;;6190878;23;20013;-90
2022/05/23 17:56:25;;;;;;;56.67;19.40;;;;;;;;;;6192242;23;20001;-88
2022/05/23 18:01:43;;;;;;;31.45;10.25;;;;;;;;;;6208459;23;20095;-88
2022/05/23 18:04:12;;;;;;;10.27;3.95;;;;;;;;;;6191172;23;20074;-89
2022/05/23 18:06:47;;;;;;;6.07;1.90;;;;;;;;;;6191403;23;20012;-88
2022/05/23 18:09:13;;;;;;;3.80;1.65;;;;;;;;;;6191151;23;20062;-88
2022/05/23 18:11:40;;;;;;;6.53;2.25;;;;;;;;;;6217223;23;20000;-88
2022/05/23 18:19:55;;;;;;;4.35;1.75;;;;;;;;;;6216583;23;20062;-79
2022/05/23 18:22:21;;;;;;;4.35;1.90;;;;;;;;;;6191672;23;20011;-78
2022/05/23 18:24:47;;;;;;;5.93;2.10;;;;;;;;;;6189907;23;20067;-91
2022/05/23 18:27:13;;;;;;;3.80;2.03;;;;;;;;;;6191823;23;20000;-92
2022/05/23 18:29:40;;;;;;;10.07;2.33;;;;;;;;;;6196843;23;20009;-94
2022/05/23 18:32:12;;;;;;;4.40;1.63;;;;;;;;;;6194804;23;20084;-94
2022/05/23 18:55:58;;;;;;;8.10;2.17;;;;;;;;;;6168983;23;20041;-96
2022/05/23 18:58:30;;;;;;;6.75;2.22;;;;;;;;;;6149524;23;20021;-95
2022/05/23 19:01:10;;;;;;;5.57;1.90;;;;;;;;;;6164575;23;20029;-94
2022/05/23 19:03:52;;;;;;;4.93;1.92;;;;;;;;;;6165972;23;20012;-85
2022/05/23 19:09:30;;;;;;;4.38;2.00;;;;;;;;;;6178029;23;20059;-89
2022/05/23 19:12:12;;;;;;;4.10;1.90;;;;;;;;;;6167064;23;20013;-96
2022/05/23 19:14:38;;;;;;;4.45;2.03;;;;;;;;;;6168632;23;20040;-78
2022/05/23 19:17:09;;;;;;;7.18;1.90;;;;;;;;;;6198405;23;19992;-84
2022/05/23 19:19:35;;;;;;;6.13;2.00;;;;;;;;;;6172466;23;20005;-79
2022/05/23 19:22:04;;;;;;;5.60;2.13;;;;;;;;;;6162653;23;20001;-94
2022/05/23 19:24:51;;;;;;;5.57;1.85;;;;;;;;;;6198528;23;20411;-94
2022/05/23 19:27:18;;;;;;;4.25;1.65;;;;;;;;;;6173923;23;20005;-96
2022/05/23 19:29:53;;;;;;;3.65;1.80;;;;;;;;;;6195166;23;20015;-89
2022/05/23 19:42:11;;;;;;;5.30;1.92;;;;;;;;;;6159671;23;20017;-92
2022/05/23 19:45:13;;;;;;;4.85;1.80;;;;;;;;;;6184087;23;20446;-95
2022/05/23 19:47:42;;;;;;;5.85;2.42;;;;;;;;;;6190629;23;20013;-78
2022/05/23 19:50:10;;;;;;;4.90;2.20;;;;;;;;;;6163063;23;20379;-77
2022/05/23 19:52:49;;;;;;;5.07;2.15;;;;;;;;;;6187658;23;20013;-75
2022/05/23 19:55:19;;;;;;;4.63;2.22;;;;;;;;;;6188353;23;20497;-89
2022/05/23 19:58:10;;;;;;;4.47;2.10;;;;;;;;;;6162329;23;20008;-95
2022/05/23 20:00:39;;;;;;;7.32;3.33;;;;;;;;;;6191105;23;20334;-78
2022/05/23 20:08:40;;;;;;;8.00;3.90;;;;;;;;;;6187001;23;20043;-77
2022/05/23 20:11:30;;;;;;;8.80;3.92;;;;;;;;;;6187108;23;20383;-94